Time;durP1;ratioP1;P1;durP2;ratioP2;P2;SDS_P1;SDS_P2;PMS_P1;PMS_P2;Temp;Humidity;BMP_temperature;BMP_pressure;BME280_temperature;BME280_humidity;BME280_pressure;Samples;Min_cycle;Max_cycle;Signal;HPM_P1;HPM_P2
2021/12/08 00:00:53;;;;;;;3.28;1.08;;;16.80;61.30;;;;;;5071395;28;20484;-78
2021/12/08 00:03:21;;;;;;;3.50;1.00;;;16.80;62.10;;;;;;5087359;28;20437;-78
2021/12/08 00:05:47;;;;;;;2.78;0.70;;;16.80;61.20;;;;;;5089600;28;20077;-78
2021/12/08 00:08:15;;;;;;;2.88;0.75;;;16.80;61.20;;;;;;5071274;28;20028;-78
2021/12/08 00:13:18;;;;;;;3.75;1.00;;;16.80;61.20;;;;;;5071009;28;20028;-78
2021/12/08 00:15:47;;;;;;;2.30;0.85;;;16.80;61.20;;;;;;5053172;28;20082;-78
2021/12/08 00:18:18;;;;;;;2.42;0.70;;;16.80;61.10;;;;;;5086310;28;20028;-78
2021/12/08 00:20:46;;;;;;;4.80;1.20;;;16.80;61.20;;;;;;5073019;28;20056;-78
2021/12/08 00:23:14;;;;;;;4.32;1.17;;;16.80;61.20;;;;;;5091366;28;20031;-78
2021/12/08 00:25:39;;;;;;;5.00;1.00;;;16.70;61.10;;;;;;5084244;28;20017;-78
2021/12/08 00:28:06;;;;;;;2.10;0.98;;;16.70;61.00;;;;;;5071725;28;20036;-78
2021/12/08 00:30:34;;;;;;;5.03;1.35;;;16.70;61.00;;;;;;5071862;28;20028;-78
2021/12/08 00:33:00;;;;;;;5.90;0.90;;;16.70;60.90;;;;;;5077029;28;20021;-78
2021/12/08 00:35:27;;;;;;;5.72;0.90;;;16.70;60.90;;;;;;5066936;28;20407;-78
2021/12/08 00:37:54;;;;;;;2.65;1.08;;;16.70;60.90;;;;;;5071927;28;20031;-77
2021/12/08 00:40:21;;;;;;;3.40;1.05;;;16.70;60.80;;;;;;5070624;28;20037;-78
2021/12/08 00:42:48;;;;;;;3.90;1.15;;;16.70;60.70;;;;;;5077193;28;20496;-78
2021/12/08 00:45:15;;;;;;;4.05;0.88;;;16.70;60.60;;;;;;5080784;28;20113;-79
2021/12/08 00:47:42;;;;;;;3.35;0.80;;;16.70;60.60;;;;;;5079723;28;20027;-79
2021/12/08 00:50:10;;;;;;;3.22;1.00;;;16.70;60.60;;;;;;5082834;28;20024;-79
2021/12/08 00:52:36;;;;;;;2.35;0.75;;;16.70;60.50;;;;;;5053222;28;20107;-79
2021/12/08 00:55:05;;;;;;;4.40;0.85;;;16.70;60.50;;;;;;5077506;28;20020;-79
2021/12/08 00:57:31;;;;;;;4.10;1.02;;;16.70;60.50;;;;;;5091051;28;20016;-79
2021/12/08 00:59:56;;;;;;;2.95;0.85;;;16.70;60.50;;;;;;5090977;28;20406;-78
2021/12/08 01:02:22;;;;;;;2.78;0.80;;;16.70;60.60;;;;;;5090649;28;20024;-78
2021/12/08 01:04:47;;;;;;;3.42;0.90;;;16.70;60.50;;;;;;5072854;28;20028;-79
2021/12/08 01:07:13;;;;;;;2.38;0.70;;;16.60;60.50;;;;;;5066024;28;20028;-78
2021/12/08 01:09:39;;;;;;;3.63;0.80;;;16.70;60.60;;;;;;5052890;28;20029;-79
2021/12/08 01:12:05;;;;;;;2.72;1.05;;;16.70;60.60;;;;;;5071012;28;20027;-78
2021/12/08 01:14:35;;;;;;;4.13;1.00;;;16.70;61.20;;;;;;5070292;28;20025;-78
2021/12/08 01:17:03;;;;;;;7.13;1.52;;;16.60;60.50;;;;;;5070475;28;20505;-79
2021/12/08 01:19:30;;;;;;;3.45;1.10;;;16.60;60.50;;;;;;5052544;28;20088;-78
2021/12/08 01:21:55;;;;;;;3.30;0.90;;;16.60;60.40;;;;;;5070744;28;20044;-77
2021/12/08 01:24:21;;;;;;;2.38;0.88;;;16.60;60.20;;;;;;5072190;28;20480;-78
2021/12/08 01:26:48;;;;;;;3.10;0.93;;;16.70;60.30;;;;;;5074417;28;20373;-78
2021/12/08 01:29:14;;;;;;;3.97;0.80;;;16.60;60.10;;;;;;5074056;28;20024;-77
2021/12/08 01:31:42;;;;;;;3.53;0.80;;;16.70;60.20;;;;;;5074370;28;20028;-78
2021/12/08 01:34:10;;;;;;;3.75;1.05;;;16.60;60.10;;;;;;5074637;28;20035;-78
2021/12/08 01:36:36;;;;;;;3.40;1.02;;;16.60;60.10;;;;;;5074742;28;20025;-77
2021/12/08 01:39:04;;;;;;;4.60;0.98;;;16.60;60.10;;;;;;5074317;28;20031;-77
2021/12/08 01:41:30;;;;;;;3.00;1.00;;;16.60;60.10;;;;;;5074059;28;20021;-77
2021/12/08 01:46:40;;;;;;;2.47;0.73;;;16.60;60.10;;;;;;5094572;28;20054;-78
2021/12/08 01:49:06;;;;;;;2.97;1.13;;;16.60;60.00;;;;;;5076604;28;20484;-77
2021/12/08 01:51:32;;;;;;;3.83;0.90;;;16.60;60.00;;;;;;5093884;28;20094;-77
2021/12/08 01:54:01;;;;;;;5.40;1.60;;;16.60;60.00;;;;;;5094105;28;20513;-77
2021/12/08 01:56:29;;;;;;;5.30;1.30;;;16.60;60.00;;;;;;5093476;28;20433;-77
2021/12/08 01:58:55;;;;;;;2.72;0.60;;;16.60;60.00;;;;;;5093822;28;20124;-78
2021/12/08 02:01:24;;;;;;;2.63;0.80;;;16.60;60.00;;;;;;5084076;28;20103;-78
2021/12/08 02:03:50;;;;;;;2.53;0.90;;;16.60;60.00;;;;;;5083705;28;20118;-78
2021/12/08 02:06:19;;;;;;;3.22;0.75;;;16.60;60.10;;;;;;5092002;28;20108;-78
2021/12/08 02:08:46;;;;;;;3.65;1.13;;;16.60;60.00;;;;;;5094144;28;20387;-78
2021/12/08 02:11:11;;;;;;;2.58;0.63;;;16.60;60.00;;;;;;5093636;28;20028;-77
2021/12/08 02:13:39;;;;;;;2.55;0.90;;;16.70;60.00;;;;;;5084644;28;20106;-77
2021/12/08 02:16:09;;;;;;;3.75;0.98;;;16.70;60.00;;;;;;5074768;28;20116;-77
2021/12/08 02:18:36;;;;;;;1.65;0.60;;;16.70;60.30;;;;;;5090106;28;20074;-78
2021/12/08 02:21:04;;;;;;;2.92;0.80;;;16.60;59.90;;;;;;5090163;28;20028;-77
2021/12/08 02:23:33;;;;;;;3.92;0.60;;;16.60;59.90;;;;;;5073229;28;20036;-78
2021/12/08 02:25:59;;;;;;;3.13;0.70;;;16.70;60.00;;;;;;5084827;28;20032;-77
2021/12/08 02:28:25;;;;;;;3.15;1.15;;;16.70;59.90;;;;;;5092892;28;20028;-77
2021/12/08 02:30:58;;;;;;;4.13;1.00;;;16.70;59.90;;;;;;5064980;28;20032;-77
2021/12/08 02:47:27;;;;;;;2.15;0.60;;;16.70;59.80;;;;;;5076683;28;20582;-77
2021/12/08 02:49:53;;;;;;;3.53;0.80;;;16.70;59.80;;;;;;5091519;28;20059;-77
2021/12/08 02:52:18;;;;;;;3.58;0.80;;;16.70;59.80;;;;;;5093109;28;20024;-77
2021/12/08 02:54:48;;;;;;;2.22;0.63;;;16.70;59.70;;;;;;5093230;28;20392;-77
2021/12/08 02:57:16;;;;;;;2.42;0.85;;;16.70;59.70;;;;;;5086640;28;20035;-77
2021/12/08 02:59:43;;;;;;;2.17;0.65;;;16.70;59.80;;;;;;5091163;28;20085;-77
2021/12/08 03:02:09;;;;;;;3.75;0.90;;;16.70;59.70;;;;;;5078390;28;20036;-77
2021/12/08 03:04:35;;;;;;;2.25;0.77;;;16.70;59.70;;;;;;5072923;28;20032;-77
2021/12/08 03:07:01;;;;;;;2.92;0.77;;;16.70;59.60;;;;;;5072836;28;20047;-77
2021/12/08 03:09:27;;;;;;;2.97;0.98;;;16.70;59.60;;;;;;5054290;28;20044;-78
2021/12/08 03:11:56;;;;;;;3.45;0.77;;;16.70;59.50;;;;;;5070995;28;20032;-78
2021/12/08 03:14:22;;;;;;;2.25;0.55;;;16.60;59.50;;;;;;5089705;28;20064;-77
2021/12/08 03:16:54;;;;;;;2.95;0.90;;;16.60;59.40;;;;;;5087500;28;20111;-77
2021/12/08 03:19:22;;;;;;;2.42;0.70;;;16.60;59.40;;;;;;5072263;28;20218;-77
2021/12/08 03:21:49;;;;;;;3.97;1.15;;;16.60;59.50;;;;;;5054320;28;20025;-77
2021/12/08 03:24:34;;;;;;;2.63;0.82;;;16.60;59.40;;;;;;5071967;28;20044;-77
2021/12/08 03:29:39;;;;;;;4.63;1.08;;;16.60;59.40;;;;;;5071755;28;20054;-77
2021/12/08 03:32:10;;;;;;;3.42;1.05;;;16.60;59.20;;;;;;5084042;28;20104;-77
2021/12/08 03:34:41;;;;;;;2.45;0.80;;;16.60;59.40;;;;;;5078093;28;20033;-77
2021/12/08 03:37:09;;;;;;;4.53;0.95;;;16.60;59.20;;;;;;5088276;28;20428;-77
2021/12/08 03:39:38;;;;;;;2.85;0.57;;;16.60;59.20;;;;;;5072351;28;20019;-79
2021/12/08 03:42:04;;;;;;;3.70;0.65;;;16.60;59.20;;;;;;5081799;28;20028;-78
2021/12/08 03:44:31;;;;;;;2.65;0.75;;;16.60;59.20;;;;;;5091934;28;20032;-79
2021/12/08 03:47:01;;;;;;;3.03;1.00;;;16.60;59.20;;;;;;5075330;28;20039;-78
2021/12/08 03:49:29;;;;;;;2.47;0.70;;;16.60;59.30;;;;;;5091938;28;20032;-78
2021/12/08 03:52:00;;;;;;;3.47;0.80;;;16.60;59.20;;;;;;5092166;28;20020;-78
2021/12/08 03:54:26;;;;;;;3.13;0.80;;;16.60;59.30;;;;;;5081607;28;20081;-78
2021/12/08 03:56:52;;;;;;;3.75;1.15;;;16.60;59.20;;;;;;5071587;28;20028;-78
2021/12/08 03:59:17;;;;;;;4.18;1.00;;;16.60;59.70;;;;;;5071324;28;20035;-78
2021/12/08 04:01:43;;;;;;;4.25;0.80;;;16.60;59.20;;;;;;5079373;28;20028;-78
2021/12/08 04:04:10;;;;;;;2.80;0.98;;;16.60;59.10;;;;;;5091263;28;20028;-78
2021/12/08 04:06:50;;;;;;;2.53;0.75;;;16.60;59.00;;;;;;5058857;28;20410;-78
2021/12/08 04:09:25;;;;;;;3.88;0.90;;;16.60;59.10;;;;;;5072088;28;20032;-78
2021/12/08 04:11:51;;;;;;;3.33;0.90;;;16.60;59.10;;;;;;5091756;28;20035;-78
2021/12/08 04:14:19;;;;;;;4.65;0.70;;;16.60;59.00;;;;;;5091327;28;20107;-78
2021/12/08 04:17:06;;;;;;;3.97;1.13;;;16.60;58.90;;;;;;5075079;28;20032;-78
2021/12/08 04:19:32;;;;;;;4.93;1.10;;;16.60;58.90;;;;;;5071039;28;20035;-77
2021/12/08 04:22:01;;;;;;;4.30;0.98;;;16.60;58.90;;;;;;5072402;28;20424;-78
2021/12/08 04:24:28;;;;;;;2.40;0.70;;;16.60;58.90;;;;;;5071079;28;20392;-78
2021/12/08 04:26:58;;;;;;;3.10;0.80;;;16.60;59.00;;;;;;5087723;28;20027;-77
2021/12/08 04:29:27;;;;;;;3.40;0.88;;;16.60;58.90;;;;;;5091419;28;20028;-78
2021/12/08 04:31:54;;;;;;;2.90;0.80;;;16.60;58.90;;;;;;5077151;28;20567;-77
2021/12/08 04:34:25;;;;;;;4.07;1.15;;;16.60;58.90;;;;;;5083784;28;20095;-78
2021/12/08 04:36:55;;;;;;;4.43;0.82;;;16.60;58.90;;;;;;5080228;28;20521;-78
2021/12/08 04:39:29;;;;;;;3.70;0.93;;;16.60;58.90;;;;;;5085751;28;20021;-78
2021/12/08 04:42:02;;;;;;;3.03;0.60;;;16.60;58.90;;;;;;5058326;28;20036;-78
2021/12/08 04:44:41;;;;;;;5.97;1.08;;;16.60;58.90;;;;;;5071417;28;20542;-78
2021/12/08 05:03:51;;;;;;;2.88;0.57;;;16.60;58.50;;;;;;5080389;28;20492;-78
2021/12/08 05:06:38;;;;;;;3.40;0.88;;;16.60;58.60;;;;;;5074566;28;20028;-78
2021/12/08 05:09:10;;;;;;;3.78;0.93;;;16.60;58.60;;;;;;5057096;28;20040;-77
2021/12/08 05:11:41;;;;;;;4.45;1.52;;;16.60;58.50;;;;;;5089897;28;20055;-78
2021/12/08 05:14:19;;;;;;;2.20;0.77;;;16.60;58.40;;;;;;5095396;28;20020;-78
2021/12/08 05:16:49;;;;;;;3.05;0.80;;;16.60;58.50;;;;;;5076911;28;20033;-77
2021/12/08 05:19:18;;;;;;;4.15;0.88;;;16.60;58.60;;;;;;5085020;28;20495;-77
2021/12/08 05:21:55;;;;;;;3.90;0.88;;;16.60;58.60;;;;;;5094587;28;20016;-78
2021/12/08 05:24:27;;;;;;;2.85;0.88;;;16.60;58.40;;;;;;5094728;28;20067;-77
2021/12/08 05:27:03;;;;;;;4.13;1.00;;;16.60;58.50;;;;;;5093107;28;20042;-77
2021/12/08 05:29:41;;;;;;;3.67;0.93;;;16.60;58.50;;;;;;5094571;28;20065;-78
2021/12/08 05:32:09;;;;;;;2.95;0.77;;;16.60;58.50;;;;;;5064949;28;20097;-78
2021/12/08 05:34:36;;;;;;;2.25;0.82;;;16.50;58.40;;;;;;5092067;28;20012;-78
2021/12/08 05:37:04;;;;;;;3.47;0.70;;;16.60;58.40;;;;;;5074740;28;20036;-78
2021/12/08 05:39:31;;;;;;;3.20;0.68;;;16.50;58.50;;;;;;5074067;28;20024;-78
2021/12/08 05:42:02;;;;;;;3.65;0.93;;;16.50;58.40;;;;;;5091626;28;20028;-78
2021/12/08 05:44:28;;;;;;;7.10;0.88;;;16.60;58.30;;;;;;5093742;28;20086;-78
2021/12/08 05:46:59;;;;;;;1.95;0.88;;;16.50;58.30;;;;;;5076884;28;20013;-78
2021/12/08 05:49:26;;;;;;;4.60;1.17;;;16.50;58.40;;;;;;5094283;28;20038;-78
2021/12/08 05:51:53;;;;;;;2.88;0.75;;;16.60;58.40;;;;;;5092427;28;20063;-77
2021/12/08 05:54:30;;;;;;;2.63;0.60;;;16.50;58.20;;;;;;5094107;28;20097;-77
2021/12/08 05:56:57;;;;;;;2.63;1.00;;;16.60;58.30;;;;;;5076149;28;20013;-77
2021/12/08 05:59:24;;;;;;;5.45;1.15;;;16.60;58.30;;;;;;5074599;28;20024;-77
2021/12/08 06:01:51;;;;;;;5.75;1.05;;;16.50;58.30;;;;;;5088032;28;20034;-77
2021/12/08 06:04:18;;;;;;;3.05;0.73;;;16.60;58.30;;;;;;5077859;28;20094;-77
2021/12/08 06:06:47;;;;;;;2.05;0.70;;;16.50;58.30;;;;;;5073768;28;20483;-77
2021/12/08 06:09:14;;;;;;;2.03;0.65;;;16.60;58.30;;;;;;5077761;28;20495;-77
2021/12/08 06:11:40;;;;;;;3.35;0.65;;;16.60;58.30;;;;;;5062902;28;20021;-77
2021/12/08 06:14:07;;;;;;;2.00;0.80;;;16.50;58.30;;;;;;5055839;28;20031;-77
2021/12/08 06:16:35;;;;;;;2.85;0.70;;;16.50;58.20;;;;;;5055438;28;20112;-77
2021/12/08 06:19:01;;;;;;;2.10;0.68;;;16.60;58.30;;;;;;5076816;28;20037;-77
2021/12/08 06:21:29;;;;;;;5.22;0.80;;;16.60;58.30;;;;;;5081709;28;20028;-77
2021/12/08 06:23:57;;;;;;;1.83;0.60;;;16.50;58.40;;;;;;5087902;28;20036;-77
2021/12/08 06:26:25;;;;;;;5.70;0.70;;;16.60;58.40;;;;;;5086875;28;20030;-78
2021/12/08 06:28:52;;;;;;;3.40;0.82;;;16.60;58.30;;;;;;5081371;28;20031;-77
2021/12/08 06:31:20;;;;;;;3.13;1.00;;;16.60;58.10;;;;;;5080073;28;20024;-77
2021/12/08 06:33:46;;;;;;;4.53;0.98;;;16.60;58.10;;;;;;5091593;28;20032;-77
2021/12/08 06:36:22;;;;;;;1.95;0.55;;;16.60;58.10;;;;;;5093336;28;20027;-77
2021/12/08 06:38:49;;;;;;;2.67;0.98;;;16.60;58.10;;;;;;5093389;28;20506;-78
2021/12/08 06:41:29;;;;;;;1.40;0.60;;;16.50;58.00;;;;;;5093188;28;20020;-78
2021/12/08 06:43:59;;;;;;;2.95;0.70;;;16.60;58.00;;;;;;5093475;28;20109;-79
2021/12/08 06:46:25;;;;;;;4.45;1.20;;;16.60;58.00;;;;;;5093080;28;20031;-78
2021/12/08 06:48:54;;;;;;;1.65;0.57;;;16.50;58.00;;;;;;5077798;28;20037;-78
2021/12/08 06:51:34;;;;;;;4.60;1.08;;;16.50;58.00;;;;;;5058768;28;20523;-78
2021/12/08 06:54:05;;;;;;;2.80;0.88;;;16.50;58.10;;;;;;5093267;28;20073;-78
2021/12/08 06:56:38;;;;;;;2.45;0.82;;;16.60;58.10;;;;;;5093028;28;20016;-78
2021/12/08 06:59:10;;;;;;;3.17;1.20;;;16.50;58.10;;;;;;5093329;28;20091;-78
2021/12/08 07:02:04;;;;;;;1.73;0.65;;;16.50;58.20;;;;;;5075278;28;20024;-79
2021/12/08 07:04:51;;;;;;;4.18;0.80;;;16.50;58.20;;;;;;5072208;28;20044;-78
2021/12/08 07:07:19;;;;;;;3.42;0.85;;;16.50;58.20;;;;;;5072453;28;20020;-83
2021/12/08 07:09:49;;;;;;;2.55;0.68;;;16.60;58.40;;;;;;5054738;28;20034;-81
2021/12/08 07:12:21;;;;;;;9.25;1.20;;;16.60;58.20;;;;;;5075227;28;20545;-81
2021/12/08 07:15:06;;;;;;;2.33;0.77;;;16.60;58.20;;;;;;5092688;28;20031;-80
2021/12/08 07:17:34;;;;;;;4.73;1.13;;;16.60;58.20;;;;;;5090685;28;20029;-81
2021/12/08 07:20:15;;;;;;;1.73;0.50;;;16.60;58.10;;;;;;5092721;28;20258;-78
2021/12/08 07:22:51;;;;;;;2.47;0.75;;;16.60;58.10;;;;;;5073630;28;20024;-83
2021/12/08 07:25:20;;;;;;;2.22;0.80;;;16.60;58.10;;;;;;5092332;28;20020;-81
2021/12/08 07:27:47;;;;;;;2.17;0.50;;;16.60;58.10;;;;;;5092579;28;20085;-82
2021/12/08 07:30:21;;;;;;;4.10;0.65;;;16.60;58.30;;;;;;5092245;28;20024;-81
2021/12/08 07:32:47;;;;;;;6.97;0.80;;;16.60;58.30;;;;;;5077190;28;20031;-81
2021/12/08 07:35:38;;;;;;;3.97;0.60;;;16.70;58.50;;;;;;5091299;28;20384;-84
2021/12/08 07:38:06;;;;;;;4.70;0.98;;;16.70;58.50;;;;;;5090303;28;20030;-79
2021/12/08 07:40:44;;;;;;;2.40;0.80;;;16.70;58.60;;;;;;5089106;28;20044;-83
2021/12/08 07:43:14;;;;;;;3.80;0.60;;;16.80;58.60;;;;;;5082738;28;20028;-83
2021/12/08 07:45:49;;;;;;;3.58;0.63;;;16.80;58.70;;;;;;5078964;28;20020;-82
2021/12/08 07:48:19;;;;;;;2.58;0.80;;;16.80;58.90;;;;;;5057188;28;20028;-81
2021/12/08 07:50:51;;;;;;;5.13;1.02;;;16.80;58.90;;;;;;5071772;28;20055;-82
2021/12/08 07:53:21;;;;;;;3.33;0.73;;;16.80;58.80;;;;;;5071509;28;20029;-83
2021/12/08 07:55:51;;;;;;;2.38;0.70;;;16.80;58.70;;;;;;5071979;28;20052;-82
2021/12/08 07:58:19;;;;;;;6.15;0.90;;;16.80;58.70;;;;;;5070684;28;20028;-83
2021/12/08 08:00:53;;;;;;;3.00;0.68;;;16.80;58.80;;;;;;5070565;28;20549;-83
2021/12/08 08:03:21;;;;;;;2.30;0.60;;;16.80;58.80;;;;;;5071264;28;20027;-83
2021/12/08 08:05:50;;;;;;;3.22;1.10;;;16.80;58.80;;;;;;5071026;28;20020;-83
2021/12/08 08:08:18;;;;;;;3.83;0.60;;;16.80;58.80;;;;;;5072820;28;20027;-82
2021/12/08 08:10:54;;;;;;;3.22;1.02;;;16.80;58.80;;;;;;5071507;28;20020;-84
2021/12/08 08:13:22;;;;;;;2.40;0.70;;;16.80;58.70;;;;;;5072132;28;20527;-83
2021/12/08 08:16:05;;;;;;;2.05;0.90;;;16.80;58.70;;;;;;5079836;28;20016;-83
2021/12/08 08:18:36;;;;;;;3.95;0.90;;;16.80;58.60;;;;;;5079576;28;20028;-82
2021/12/08 08:21:08;;;;;;;2.95;0.68;;;16.80;58.60;;;;;;5078890;28;20017;-84
2021/12/08 08:23:34;;;;;;;4.35;1.05;;;16.80;58.60;;;;;;5079610;28;20024;-83
2021/12/08 08:26:02;;;;;;;6.65;0.90;;;16.80;58.50;;;;;;5080925;28;20031;-83
2021/12/08 08:28:28;;;;;;;8.93;1.27;;;16.80;58.60;;;;;;5079117;28;20343;-83
2021/12/08 08:31:03;;;;;;;3.22;0.93;;;16.80;58.60;;;;;;5079180;28;20028;-83
2021/12/08 08:33:31;;;;;;;7.75;1.15;;;16.80;58.70;;;;;;5077287;28;20393;-83
2021/12/08 08:36:04;;;;;;;4.35;0.98;;;16.80;58.90;;;;;;5079741;28;20036;-83
2021/12/08 08:38:37;;;;;;;6.18;1.23;;;16.80;59.10;;;;;;5084594;28;20031;-82
2021/12/08 08:41:18;;;;;;;5.82;1.30;;;16.80;59.10;;;;;;5085273;28;20035;-82
2021/12/08 08:43:44;;;;;;;7.53;2.05;;;16.80;59.10;;;;;;5091469;28;20067;-82
2021/12/08 08:46:15;;;;;;;7.97;2.20;;;16.80;59.20;;;;;;5091029;28;20024;-82
2021/12/08 08:48:48;;;;;;;5.18;1.10;;;16.80;59.10;;;;;;5091469;28;20024;-82
2021/12/08 08:51:19;;;;;;;5.93;1.23;;;16.70;59.00;;;;;;5091028;28;20028;-82
2021/12/08 08:53:48;;;;;;;6.95;1.27;;;16.70;59.00;;;;;;5073157;28;20020;-82
2021/12/08 08:56:19;;;;;;;4.43;1.08;;;16.70;58.90;;;;;;5091043;28;20031;-82
2021/12/08 08:58:48;;;;;;;5.88;1.10;;;16.70;58.90;;;;;;5091163;28;20111;-83
2021/12/08 09:01:19;;;;;;;6.82;1.02;;;16.70;58.90;;;;;;5090964;28;20091;-82
2021/12/08 09:03:52;;;;;;;6.80;1.40;;;16.70;58.80;;;;;;5072847;28;20437;-82
2021/12/08 09:06:26;;;;;;;4.75;1.27;;;16.70;58.80;;;;;;5090864;28;20448;-82
2021/12/08 09:08:53;;;;;;;5.50;1.48;;;16.60;58.70;;;;;;5091206;28;20063;-82
2021/12/08 09:11:25;;;;;;;5.68;1.25;;;16.60;58.60;;;;;;5090928;28;20016;-83
2021/12/08 09:14:09;;;;;;;3.83;1.17;;;16.60;59.20;;;;;;5091166;28;20027;-84
2021/12/08 09:16:54;;;;;;;5.88;1.30;;;16.60;58.60;;;;;;5091345;28;20059;-82
2021/12/08 09:19:36;;;;;;;5.43;1.02;;;16.60;58.50;;;;;;5090766;28;20476;-82
2021/12/08 09:22:10;;;;;;;2.05;0.73;;;16.60;58.50;;;;;;5090557;28;20028;-82
2021/12/08 09:24:56;;;;;;;3.53;0.90;;;16.60;58.50;;;;;;5084339;28;20502;-82
2021/12/08 09:27:36;;;;;;;3.60;1.00;;;16.60;58.50;;;;;;5090666;28;20028;-82
2021/12/08 09:30:24;;;;;;;7.05;1.38;;;16.60;58.40;;;;;;5089726;28;20480;-82
2021/12/08 09:32:59;;;;;;;4.13;1.13;;;16.50;58.40;;;;;;5072785;28;20027;-83
2021/12/08 09:35:49;;;;;;;3.53;0.93;;;16.50;58.30;;;;;;5090595;28;20024;-82
2021/12/08 09:38:22;;;;;;;4.93;1.10;;;16.50;58.30;;;;;;5084421;28;20020;-82
2021/12/08 09:41:00;;;;;;;4.35;0.90;;;16.50;58.20;;;;;;5087586;28;20099;-82
2021/12/08 09:43:57;;;;;;;4.82;0.73;;;16.50;58.10;;;;;;5090504;28;20039;-82
2021/12/08 09:46:25;;;;;;;7.45;1.67;;;16.50;58.10;;;;;;5093116;28;20079;-83
2021/12/08 09:48:52;;;;;;;3.83;1.08;;;16.50;58.10;;;;;;5094363;28;20023;-82
2021/12/08 09:51:21;;;;;;;2.85;0.85;;;16.50;58.10;;;;;;5092880;28;20085;-82
2021/12/08 09:53:48;;;;;;;4.50;0.95;;;16.50;58.00;;;;;;5083746;28;20035;-82
2021/12/08 09:56:15;;;;;;;6.30;1.50;;;16.60;58.00;;;;;;5083732;28;20573;-82
2021/12/08 09:58:41;;;;;;;2.92;0.73;;;16.50;57.90;;;;;;5082036;28;20032;-82
2021/12/08 10:01:12;;;;;;;5.53;0.90;;;16.60;57.90;;;;;;5088191;28;20095;-82
2021/12/08 10:03:38;;;;;;;3.97;0.85;;;16.60;57.80;;;;;;5094232;28;20040;-82
2021/12/08 10:06:03;;;;;;;3.08;0.65;;;16.60;57.70;;;;;;5094461;28;20116;-82
2021/12/08 10:08:29;;;;;;;3.22;0.98;;;16.60;57.80;;;;;;5093830;28;20547;-82
2021/12/08 10:10:56;;;;;;;2.88;0.75;;;16.50;57.90;;;;;;5094054;28;20030;-82
2021/12/08 10:13:22;;;;;;;1.88;0.82;;;16.60;57.90;;;;;;5093797;28;20020;-82
2021/12/08 10:15:48;;;;;;;4.00;0.93;;;16.50;58.00;;;;;;5093942;28;20028;-82
2021/12/08 10:18:15;;;;;;;3.25;1.10;;;16.50;58.00;;;;;;5093787;28;20024;-82
2021/12/08 10:20:50;;;;;;;4.75;1.05;;;16.60;57.90;;;;;;5093933;28;20052;-83
2021/12/08 10:23:35;;;;;;;3.17;0.90;;;16.50;57.90;;;;;;5084626;28;20032;-83
2021/12/08 10:26:11;;;;;;;3.17;0.80;;;16.60;57.80;;;;;;5088609;28;20028;-82
2021/12/08 10:28:44;;;;;;;4.88;0.90;;;16.60;57.80;;;;;;5085642;28;20024;-82
2021/12/08 10:31:40;;;;;;;4.78;0.70;;;16.60;57.80;;;;;;5084583;28;20016;-82
2021/12/08 10:37:00;;;;;;;5.50;1.15;;;16.60;57.70;;;;;;5093506;28;20024;-83
2021/12/08 10:39:29;;;;;;;2.22;0.80;;;16.60;57.70;;;;;;5093296;28;20719;-83
2021/12/08 10:42:14;;;;;;;2.75;0.73;;;16.60;57.70;;;;;;5092474;28;20028;-82
2021/12/08 10:45:10;;;;;;;7.40;1.05;;;16.60;57.70;;;;;;5090554;28;20046;-82
2021/12/08 10:47:39;;;;;;;4.60;0.95;;;16.70;57.70;;;;;;5093779;28;20027;-85
2021/12/08 10:55:56;;;;;;;2.17;0.80;;;16.70;57.50;;;;;;5092923;28;20035;-82
2021/12/08 10:58:25;;;;;;;3.25;0.88;;;16.70;57.50;;;;;;5092589;28;20024;-82
2021/12/08 11:00:53;;;;;;;4.38;0.90;;;16.70;57.50;;;;;;5078777;28;20039;-83
2021/12/08 11:03:19;;;;;;;6.10;1.08;;;16.70;57.60;;;;;;5074647;28;20036;-82
2021/12/08 11:05:49;;;;;;;2.42;0.70;;;16.70;57.50;;;;;;5077384;28;20080;-82
2021/12/08 11:08:31;;;;;;;3.10;0.85;;;16.70;57.50;;;;;;5079466;28;20029;-82
2021/12/08 11:11:03;;;;;;;5.40;1.00;;;16.80;57.50;;;;;;5072606;28;20033;-83
2021/12/08 11:13:36;;;;;;;2.03;0.70;;;16.80;57.50;;;;;;5072213;28;20025;-82
2021/12/08 11:16:20;;;;;;;1.98;0.80;;;16.80;57.40;;;;;;5075140;28;20029;-82
2021/12/08 11:18:49;;;;;;;2.63;0.80;;;16.80;57.30;;;;;;5072492;28;20017;-83
2021/12/08 11:21:36;;;;;;;2.05;0.73;;;16.80;57.40;;;;;;5072210;28;20024;-82
2021/12/08 11:24:33;;;;;;;2.35;0.70;;;16.70;57.40;;;;;;5072319;28;20454;-82
2021/12/08 11:27:03;;;;;;;2.75;1.02;;;16.70;57.40;;;;;;5087334;28;20031;-82
2021/12/08 11:29:31;;;;;;;3.63;0.70;;;16.70;57.40;;;;;;5084973;28;20143;-82
2021/12/08 11:32:07;;;;;;;4.70;0.80;;;16.70;57.50;;;;;;5085162;28;20032;-82
2021/12/08 11:34:36;;;;;;;2.00;0.65;;;16.70;57.50;;;;;;5079879;28;20027;-82
2021/12/08 11:37:06;;;;;;;3.65;0.90;;;16.60;57.40;;;;;;5080565;28;20027;-82
2021/12/08 11:39:43;;;;;;;4.43;0.88;;;16.70;57.50;;;;;;5086918;28;20039;-82
2021/12/08 11:42:16;;;;;;;2.03;0.50;;;16.60;57.40;;;;;;5091264;28;20032;-82
2021/12/08 11:44:46;;;;;;;3.58;0.68;;;16.60;57.50;;;;;;5091474;28;20035;-82
2021/12/08 11:47:15;;;;;;;6.32;0.80;;;16.60;57.50;;;;;;5072927;28;20072;-82
2021/12/08 11:49:44;;;;;;;3.60;1.17;;;16.60;57.50;;;;;;5091590;28;20086;-82
2021/12/08 11:52:13;;;;;;;3.95;0.70;;;16.60;57.40;;;;;;5091338;28;20055;-82
2021/12/08 11:54:59;;;;;;;2.47;0.80;;;16.60;57.40;;;;;;5087350;28;20024;-81
2021/12/08 11:57:34;;;;;;;2.53;0.65;;;16.60;57.30;;;;;;5090653;28;20020;-82
2021/12/08 12:00:16;;;;;;;4.35;1.02;;;16.60;57.30;;;;;;5091806;28;20389;-82
2021/12/08 12:02:55;;;;;;;4.57;0.70;;;16.70;57.30;;;;;;5073766;28;20020;-82
2021/12/08 12:05:25;;;;;;;8.20;1.30;;;16.70;57.30;;;;;;5091580;28;20123;-81
2021/12/08 12:07:51;;;;;;;9.50;1.17;;;16.70;57.30;;;;;;5091796;28;20020;-81
2021/12/08 12:10:22;;;;;;;16.95;1.70;;;16.70;57.20;;;;;;5092053;28;20028;-82
2021/12/08 12:12:48;;;;;;;14.60;1.63;;;16.70;57.30;;;;;;5091754;28;20073;-81
2021/12/08 12:15:17;;;;;;;12.38;1.65;;;16.80;57.40;;;;;;5090698;28;20111;-82
2021/12/08 12:17:44;;;;;;;28.48;2.28;;;16.80;57.40;;;;;;5092202;28;20024;-81
2021/12/08 12:20:38;;;;;;;19.17;2.00;;;16.90;57.30;;;;;;5093437;28;20442;-82
2021/12/08 12:23:44;;;;;;;11.27;1.60;;;17.60;56.40;;;;;;5092338;28;20024;-82
2021/12/08 12:26:22;;;;;;;13.32;1.98;;;18.30;55.00;;;;;;5088692;28;20040;-80
2021/12/08 12:29:11;;;;;;;17.80;2.42;;;18.80;53.40;;;;;;5079620;28;20100;-79
2021/12/08 12:31:44;;;;;;;7.72;1.40;;;19.10;53.10;;;;;;5081039;28;20082;-80
2021/12/08 12:34:28;;;;;;;16.65;2.15;;;19.50;52.40;;;;;;5061619;28;20435;-80
2021/12/08 12:36:55;;;;;;;11.35;1.42;;;19.60;52.00;;;;;;5080727;28;20138;-80
2021/12/08 12:39:25;;;;;;;7.93;1.20;;;19.90;51.90;;;;;;5078575;28;20017;-81
2021/12/08 12:42:02;;;;;;;11.65;1.88;;;20.10;51.20;;;;;;5079542;28;20047;-80
2021/12/08 12:44:30;;;;;;;9.43;1.90;;;20.10;51.60;;;;;;5079228;28;20040;-79
2021/12/08 12:47:06;;;;;;;11.55;1.95;;;19.90;51.80;;;;;;5078714;28;20020;-81
2021/12/08 12:49:33;;;;;;;15.50;2.13;;;19.40;53.10;;;;;;5080601;28;20029;-80
2021/12/08 12:52:05;;;;;;;9.35;1.73;;;18.90;54.10;;;;;;5078827;28;20032;-80
2021/12/08 12:54:31;;;;;;;7.38;1.83;;;18.60;55.30;;;;;;5079051;28;20391;-80
2021/12/08 12:56:58;;;;;;;9.30;1.55;;;18.50;55.20;;;;;;5080389;28;20368;-79
2021/12/08 12:59:36;;;;;;;8.73;1.60;;;18.30;55.50;;;;;;5078317;28;20036;-80
2021/12/08 13:02:12;;;;;;;8.45;1.45;;;18.30;55.80;;;;;;5078602;28;20028;-80
2021/12/08 13:04:57;;;;;;;9.38;2.03;;;18.20;56.00;;;;;;5078358;28;20032;-78
2021/12/08 13:07:28;;;;;;;17.30;2.55;;;18.10;56.30;;;;;;5078800;28;20024;-79
2021/12/08 13:10:07;;;;;;;9.32;1.40;;;18.00;57.10;;;;;;5088699;28;20496;-79
2021/12/08 13:12:36;;;;;;;8.75;1.23;;;18.00;56.50;;;;;;5085553;28;20078;-80
2021/12/08 13:15:11;;;;;;;9.02;1.50;;;18.00;56.70;;;;;;5087770;28;20024;-80
2021/12/08 13:17:36;;;;;;;8.48;2.22;;;17.90;56.80;;;;;;5091371;28;20052;-79
2021/12/08 13:20:09;;;;;;;7.75;1.75;;;17.90;56.90;;;;;;5074005;28;20099;-80
2021/12/08 13:22:44;;;;;;;6.15;1.52;;;17.80;57.00;;;;;;5082914;28;20036;-80
2021/12/08 13:25:30;;;;;;;5.68;1.23;;;17.80;57.10;;;;;;5076999;28;20044;-80
2021/12/08 13:28:08;;;;;;;4.20;1.17;;;17.80;57.20;;;;;;5074488;28;20099;-80
2021/12/08 13:30:34;;;;;;;4.97;1.42;;;17.70;57.20;;;;;;5074849;28;20503;-80
2021/12/08 13:33:08;;;;;;;4.35;0.95;;;17.60;57.50;;;;;;5078217;28;20388;-80
2021/12/08 13:35:36;;;;;;;10.35;1.38;;;17.60;57.70;;;;;;5066254;28;20024;-80
2021/12/08 13:38:04;;;;;;;7.07;1.30;;;17.60;57.80;;;;;;5089744;28;20422;-80
2021/12/08 13:40:49;;;;;;;3.78;0.90;;;17.60;57.80;;;;;;5094456;28;20059;-80
2021/12/08 13:43:33;;;;;;;2.40;1.00;;;17.50;57.80;;;;;;5077658;28;20035;-80
2021/12/08 13:45:59;;;;;;;6.13;1.33;;;17.50;57.70;;;;;;5074328;28;20036;-80
2021/12/08 13:48:25;;;;;;;6.22;1.27;;;17.50;57.60;;;;;;5062212;28;20510;-80
2021/12/08 13:50:51;;;;;;;3.03;1.10;;;17.40;57.60;;;;;;5076364;28;20024;-79
2021/12/08 13:53:17;;;;;;;4.63;1.48;;;17.30;57.60;;;;;;5094153;28;20040;-79